sensor_id;sensor_type;location;lat;lon;timestamp;temperature;humidity
32664;DHT22;19847;48.670;9.242;2022-07-23T00:02:51;23.80;90.90
32664;DHT22;19847;48.670;9.242;2022-07-23T00:06:14;23.90;90.80
32664;DHT22;19847;48.670;9.242;2022-07-23T00:09:35;23.80;91.10
32664;DHT22;19847;48.670;9.242;2022-07-23T00:12:57;23.80;91.30
32664;DHT22;19847;48.670;9.242;2022-07-23T00:16:19;23.80;91.90
32664;DHT22;19847;48.670;9.242;2022-07-23T00:19:42;23.70;92.00
32664;DHT22;19847;48.670;9.242;2022-07-23T00:23:04;23.60;91.50
32664;DHT22;19847;48.670;9.242;2022-07-23T00:26:26;23.60;90.80
32664;DHT22;19847;48.670;9.242;2022-07-23T00:29:48;23.60;90.90
32664;DHT22;19847;48.670;9.242;2022-07-23T00:33:10;23.60;91.40
32664;DHT22;19847;48.670;9.242;2022-07-23T00:36:34;23.70;91.80
32664;DHT22;19847;48.670;9.242;2022-07-23T00:39:56;23.60;92.30
32664;DHT22;19847;48.670;9.242;2022-07-23T00:43:20;23.60;92.20
32664;DHT22;19847;48.670;9.242;2022-07-23T00:46:46;23.50;92.60
32664;DHT22;19847;48.670;9.242;2022-07-23T00:50:09;23.40;92.80
32664;DHT22;19847;48.670;9.242;2022-07-23T00:53:32;23.40;91.60
32664;DHT22;19847;48.670;9.242;2022-07-23T00:56:54;23.30;91.40
32664;DHT22;19847;48.670;9.242;2022-07-23T01:00:18;23.30;90.80
32664;DHT22;19847;48.670;9.242;2022-07-23T01:03:39;23.30;91.40
32664;DHT22;19847;48.670;9.242;2022-07-23T01:07:02;23.30;91.50
32664;DHT22;19847;48.670;9.242;2022-07-23T01:10:25;23.30;91.80
32664;DHT22;19847;48.670;9.242;2022-07-23T01:13:47;23.10;91.80
32664;DHT22;19847;48.670;9.242;2022-07-23T01:17:10;23.10;92.00
32664;DHT22;19847;48.670;9.242;2022-07-23T01:20:32;23.10;92.20
32664;DHT22;19847;48.670;9.242;2022-07-23T01:23:55;23.00;91.70
32664;DHT22;19847;48.670;9.242;2022-07-23T01:27:18;23.00;91.80
32664;DHT22;19847;48.670;9.242;2022-07-23T01:30:41;23.00;92.00
32664;DHT22;19847;48.670;9.242;2022-07-23T01:34:03;23.00;92.10
32664;DHT22;19847;48.670;9.242;2022-07-23T01:37:25;22.90;92.10
32664;DHT22;19847;48.670;9.242;2022-07-23T01:40:49;23.00;92.00
32664;DHT22;19847;48.670;9.242;2022-07-23T01:44:17;22.90;92.20
32664;DHT22;19847;48.670;9.242;2022-07-23T01:47:39;22.90;92.30
32664;DHT22;19847;48.670;9.242;2022-07-23T01:51:01;22.80;93.10
32664;DHT22;19847;48.670;9.242;2022-07-23T01:54:34;22.90;93.20
32664;DHT22;19847;48.670;9.242;2022-07-23T01:58:00;22.80;93.20
32664;DHT22;19847;48.670;9.242;2022-07-23T02:01:23;22.70;93.50
32664;DHT22;19847;48.670;9.242;2022-07-23T02:04:46;22.70;93.40
32664;DHT22;19847;48.670;9.242;2022-07-23T02:08:10;22.60;93.50
32664;DHT22;19847;48.670;9.242;2022-07-23T02:11:32;22.60;93.60
32664;DHT22;19847;48.670;9.242;2022-07-23T02:14:56;22.60;94.20
32664;DHT22;19847;48.670;9.242;2022-07-23T02:18:19;22.60;93.60
32664;DHT22;19847;48.670;9.242;2022-07-23T02:21:41;22.60;93.70
32664;DHT22;19847;48.670;9.242;2022-07-23T02:25:04;22.60;93.60
32664;DHT22;19847;48.670;9.242;2022-07-23T02:28:26;22.60;94.20
32664;DHT22;19847;48.670;9.242;2022-07-23T02:31:49;22.60;94.40
32664;DHT22;19847;48.670;9.242;2022-07-23T02:35:11;22.50;94.30
32664;DHT22;19847;48.670;9.242;2022-07-23T02:38:33;22.40;94.50
32664;DHT22;19847;48.670;9.242;2022-07-23T02:41:55;22.40;95.10
32664;DHT22;19847;48.670;9.242;2022-07-23T02:45:18;22.40;95.60
32664;DHT22;19847;48.670;9.242;2022-07-23T02:48:41;22.30;95.20
32664;DHT22;19847;48.670;9.242;2022-07-23T02:52:04;22.20;95.50
32664;DHT22;19847;48.670;9.242;2022-07-23T02:55:26;22.30;95.70
32664;DHT22;19847;48.670;9.242;2022-07-23T02:58:48;22.30;95.50
32664;DHT22;19847;48.670;9.242;2022-07-23T03:02:10;22.40;95.80
32664;DHT22;19847;48.670;9.242;2022-07-23T03:05:34;22.40;95.90
32664;DHT22;19847;48.670;9.242;2022-07-23T03:08:56;22.40;95.90
32664;DHT22;19847;48.670;9.242;2022-07-23T03:12:18;22.30;95.80
32664;DHT22;19847;48.670;9.242;2022-07-23T03:15:40;22.20;96.10
32664;DHT22;19847;48.670;9.242;2022-07-23T03:19:02;22.20;96.10
32664;DHT22;19847;48.670;9.242;2022-07-23T03:22:29;22.20;96.40
32664;DHT22;19847;48.670;9.242;2022-07-23T03:25:51;22.20;96.30
32664;DHT22;19847;48.670;9.242;2022-07-23T03:29:16;22.10;96.30
32664;DHT22;19847;48.670;9.242;2022-07-23T03:32:38;22.10;96.60
32664;DHT22;19847;48.670;9.242;2022-07-23T03:36:00;22.10;96.60
32664;DHT22;19847;48.670;9.242;2022-07-23T03:39:26;22.00;96.90
32664;DHT22;19847;48.670;9.242;2022-07-23T03:42:48;21.90;97.60
32664;DHT22;19847;48.670;9.242;2022-07-23T03:46:10;21.90;98.00
32664;DHT22;19847;48.670;9.242;2022-07-23T03:49:33;21.90;97.80
32664;DHT22;19847;48.670;9.242;2022-07-23T03:52:55;21.70;98.50
32664;DHT22;19847;48.670;9.242;2022-07-23T03:56:18;21.70;98.80
32664;DHT22;19847;48.670;9.242;2022-07-23T03:59:40;21.70;99.20
32664;DHT22;19847;48.670;9.242;2022-07-23T04:03:02;21.70;99.60
32664;DHT22;19847;48.670;9.242;2022-07-23T04:06:24;21.60;99.80
32664;DHT22;19847;48.670;9.242;2022-07-23T04:09:48;21.60;99.90
32664;DHT22;19847;48.670;9.242;2022-07-23T04:13:11;21.60;99.90
32664;DHT22;19847;48.670;9.242;2022-07-23T04:16:33;21.60;99.90
32664;DHT22;19847;48.670;9.242;2022-07-23T04:19:55;21.70;99.90
32664;DHT22;19847;48.670;9.242;2022-07-23T04:23:19;21.80;99.90
32664;DHT22;19847;48.670;9.242;2022-07-23T04:26:41;21.80;99.90
32664;DHT22;19847;48.670;9.242;2022-07-23T04:30:06;21.60;99.90
32664;DHT22;19847;48.670;9.242;2022-07-23T04:33:29;21.60;99.90
32664;DHT22;19847;48.670;9.242;2022-07-23T04:36:53;21.60;99.90
32664;DHT22;19847;48.670;9.242;2022-07-23T04:40:15;21.60;99.90
32664;DHT22;19847;48.670;9.242;2022-07-23T04:43:37;21.70;99.90
32664;DHT22;19847;48.670;9.242;2022-07-23T04:47:01;21.70;99.90
32664;DHT22;19847;48.670;9.242;2022-07-23T04:50:23;21.80;99.90
32664;DHT22;19847;48.670;9.242;2022-07-23T04:53:50;21.70;99.90
32664;DHT22;19847;48.670;9.242;2022-07-23T04:57:12;21.90;99.90
32664;DHT22;19847;48.670;9.242;2022-07-23T05:00:34;21.90;99.90
32664;DHT22;19847;48.670;9.242;2022-07-23T05:03:58;22.00;99.90
32664;DHT22;19847;48.670;9.242;2022-07-23T05:07:25;22.10;99.90
32664;DHT22;19847;48.670;9.242;2022-07-23T05:10:47;22.40;99.90
32664;DHT22;19847;48.670;9.242;2022-07-23T05:14:10;22.50;99.90
32664;DHT22;19847;48.670;9.242;2022-07-23T05:17:32;22.60;99.90
32664;DHT22;19847;48.670;9.242;2022-07-23T05:20:58;22.80;99.90
32664;DHT22;19847;48.670;9.242;2022-07-23T05:24:20;22.90;99.90
32664;DHT22;19847;48.670;9.242;2022-07-23T05:27:42;23.00;99.90
32664;DHT22;19847;48.670;9.242;2022-07-23T05:31:04;22.90;99.90
32664;DHT22;19847;48.670;9.242;2022-07-23T05:34:27;22.90;99.90
32664;DHT22;19847;48.670;9.242;2022-07-23T05:37:52;23.00;99.90
32664;DHT22;19847;48.670;9.242;2022-07-23T05:41:14;23.80;99.90
32664;DHT22;19847;48.670;9.242;2022-07-23T05:44:36;24.30;99.90
32664;DHT22;19847;48.670;9.242;2022-07-23T05:47:59;24.10;99.90
32664;DHT22;19847;48.670;9.242;2022-07-23T05:51:26;23.90;99.90
32664;DHT22;19847;48.670;9.242;2022-07-23T05:54:50;23.60;99.90
32664;DHT22;19847;48.670;9.242;2022-07-23T05:58:11;23.30;99.90
32664;DHT22;19847;48.670;9.242;2022-07-23T06:01:33;23.30;99.90
32664;DHT22;19847;48.670;9.242;2022-07-23T06:05:05;23.10;99.90
32664;DHT22;19847;48.670;9.242;2022-07-23T06:08:31;23.20;99.90
32664;DHT22;19847;48.670;9.242;2022-07-23T06:11:55;23.20;99.90
32664;DHT22;19847;48.670;9.242;2022-07-23T06:15:17;23.30;99.90
32664;DHT22;19847;48.670;9.242;2022-07-23T06:18:40;23.50;99.90
32664;DHT22;19847;48.670;9.242;2022-07-23T06:22:03;23.70;99.90
32664;DHT22;19847;48.670;9.242;2022-07-23T06:25:25;24.50;99.90
32664;DHT22;19847;48.670;9.242;2022-07-23T06:28:48;25.20;99.90
32664;DHT22;19847;48.670;9.242;2022-07-23T06:32:10;25.70;99.90
32664;DHT22;19847;48.670;9.242;2022-07-23T06:35:32;26.40;99.90
32664;DHT22;19847;48.670;9.242;2022-07-23T06:38:53;28.60;98.20
32664;DHT22;19847;48.670;9.242;2022-07-23T06:42:15;30.70;96.50
32664;DHT22;19847;48.670;9.242;2022-07-23T06:45:40;32.40;93.60
32664;DHT22;19847;48.670;9.242;2022-07-23T06:49:02;32.30;87.70
32664;DHT22;19847;48.670;9.242;2022-07-23T06:52:25;30.60;87.90
32664;DHT22;19847;48.670;9.242;2022-07-23T06:55:47;29.60;90.70
32664;DHT22;19847;48.670;9.242;2022-07-23T06:59:09;28.70;93.00
32664;DHT22;19847;48.670;9.242;2022-07-23T07:02:33;28.70;91.40
32664;DHT22;19847;48.670;9.242;2022-07-23T07:05:55;28.80;91.50
32664;DHT22;19847;48.670;9.242;2022-07-23T07:09:16;30.50;90.20
32664;DHT22;19847;48.670;9.242;2022-07-23T07:12:38;31.40;83.70
32664;DHT22;19847;48.670;9.242;2022-07-23T07:16:00;30.90;84.40
32664;DHT22;19847;48.670;9.242;2022-07-23T07:19:23;29.80;84.90
32664;DHT22;19847;48.670;9.242;2022-07-23T07:22:45;28.80;84.40
32664;DHT22;19847;48.670;9.242;2022-07-23T07:26:07;28.00;88.10
32664;DHT22;19847;48.670;9.242;2022-07-23T07:29:29;27.40;90.30
32664;DHT22;19847;48.670;9.242;2022-07-23T07:32:51;27.00;90.20
32664;DHT22;19847;48.670;9.242;2022-07-23T07:36:20;27.30;91.50
32664;DHT22;19847;48.670;9.242;2022-07-23T07:39:41;28.80;89.70
32664;DHT22;19847;48.670;9.242;2022-07-23T07:43:03;30.30;82.10
32664;DHT22;19847;48.670;9.242;2022-07-23T07:46:26;31.50;80.70
32664;DHT22;19847;48.670;9.242;2022-07-23T07:49:48;32.80;75.80
32664;DHT22;19847;48.670;9.242;2022-07-23T07:53:11;33.50;75.50
32664;DHT22;19847;48.670;9.242;2022-07-23T07:56:33;33.60;68.60
32664;DHT22;19847;48.670;9.242;2022-07-23T07:59:54;33.30;70.90
32664;DHT22;19847;48.670;9.242;2022-07-23T08:03:17;32.60;72.70
32664;DHT22;19847;48.670;9.242;2022-07-23T08:06:40;31.50;72.10
32664;DHT22;19847;48.670;9.242;2022-07-23T08:10:04;30.40;74.10
32664;DHT22;19847;48.670;9.242;2022-07-23T08:13:26;30.00;76.60
32664;DHT22;19847;48.670;9.242;2022-07-23T08:16:48;29.80;78.50
32664;DHT22;19847;48.670;9.242;2022-07-23T08:20:30;31.10;75.30
32664;DHT22;19847;48.670;9.242;2022-07-23T08:23:51;31.50;72.50
32664;DHT22;19847;48.670;9.242;2022-07-23T08:27:15;30.40;77.20
32664;DHT22;19847;48.670;9.242;2022-07-23T08:30:38;30.70;74.00
32664;DHT22;19847;48.670;9.242;2022-07-23T08:34:00;30.20;75.30
32664;DHT22;19847;48.670;9.242;2022-07-23T08:37:22;30.10;78.80
32664;DHT22;19847;48.670;9.242;2022-07-23T08:40:46;30.70;78.50
32664;DHT22;19847;48.670;9.242;2022-07-23T08:44:10;31.20;74.80
32664;DHT22;19847;48.670;9.242;2022-07-23T08:47:32;32.30;72.60
32664;DHT22;19847;48.670;9.242;2022-07-23T08:50:56;32.90;70.30
32664;DHT22;19847;48.670;9.242;2022-07-23T08:54:19;32.60;70.80
32664;DHT22;19847;48.670;9.242;2022-07-23T08:57:42;32.00;72.80
32664;DHT22;19847;48.670;9.242;2022-07-23T09:01:05;31.60;69.90
32664;DHT22;19847;48.670;9.242;2022-07-23T09:04:27;30.30;72.00
32664;DHT22;19847;48.670;9.242;2022-07-23T09:08:07;29.60;76.10
32664;DHT22;19847;48.670;9.242;2022-07-23T09:11:29;30.00;74.60
32664;DHT22;19847;48.670;9.242;2022-07-23T09:14:51;30.60;73.20
32664;DHT22;19847;48.670;9.242;2022-07-23T09:18:15;31.70;76.70
32664;DHT22;19847;48.670;9.242;2022-07-23T09:21:37;33.60;72.60
32664;DHT22;19847;48.670;9.242;2022-07-23T09:25:13;34.30;71.10
32664;DHT22;19847;48.670;9.242;2022-07-23T09:28:51;34.80;64.70
32664;DHT22;19847;48.670;9.242;2022-07-23T09:32:13;35.30;68.00
32664;DHT22;19847;48.670;9.242;2022-07-23T09:35:48;35.20;63.50
32664;DHT22;19847;48.670;9.242;2022-07-23T09:39:11;35.00;63.50
32664;DHT22;19847;48.670;9.242;2022-07-23T09:42:34;34.50;68.20
32664;DHT22;19847;48.670;9.242;2022-07-23T09:46:16;35.50;65.00
32664;DHT22;19847;48.670;9.242;2022-07-23T09:49:38;35.20;64.10
32664;DHT22;19847;48.670;9.242;2022-07-23T09:53:01;34.10;62.10
32664;DHT22;19847;48.670;9.242;2022-07-23T09:56:23;33.90;63.70
32664;DHT22;19847;48.670;9.242;2022-07-23T09:59:48;32.90;64.60
32664;DHT22;19847;48.670;9.242;2022-07-23T10:03:11;32.20;65.30
32664;DHT22;19847;48.670;9.242;2022-07-23T10:06:54;31.90;67.10
32664;DHT22;19847;48.670;9.242;2022-07-23T10:10:36;32.00;67.60
32664;DHT22;19847;48.670;9.242;2022-07-23T10:14:18;32.20;66.20
32664;DHT22;19847;48.670;9.242;2022-07-23T10:17:50;32.70;67.40
32664;DHT22;19847;48.670;9.242;2022-07-23T10:21:18;33.10;64.20
32664;DHT22;19847;48.670;9.242;2022-07-23T10:24:53;33.50;66.10
32664;DHT22;19847;48.670;9.242;2022-07-23T10:28:30;33.20;62.90
32664;DHT22;19847;48.670;9.242;2022-07-23T10:32:07;33.30;65.20
32664;DHT22;19847;48.670;9.242;2022-07-23T10:35:36;33.10;63.80
32664;DHT22;19847;48.670;9.242;2022-07-23T10:39:05;33.30;65.20
32664;DHT22;19847;48.670;9.242;2022-07-23T10:42:33;32.40;66.40
32664;DHT22;19847;48.670;9.242;2022-07-23T10:46:24;31.80;66.50
32664;DHT22;19847;48.670;9.242;2022-07-23T10:49:47;31.60;69.00
32664;DHT22;19847;48.670;9.242;2022-07-23T10:53:14;31.20;67.90
32664;DHT22;19847;48.670;9.242;2022-07-23T10:57:06;31.50;69.70
32664;DHT22;19847;48.670;9.242;2022-07-23T11:00:29;31.50;67.10
32664;DHT22;19847;48.670;9.242;2022-07-23T11:03:57;31.30;68.80
32664;DHT22;19847;48.670;9.242;2022-07-23T11:07:19;31.00;69.10
32664;DHT22;19847;48.670;9.242;2022-07-23T11:10:45;31.40;72.00
32664;DHT22;19847;48.670;9.242;2022-07-23T11:14:07;30.90;65.70
32664;DHT22;19847;48.670;9.242;2022-07-23T11:17:30;30.10;68.80
32664;DHT22;19847;48.670;9.242;2022-07-23T11:20:54;29.70;69.90
32664;DHT22;19847;48.670;9.242;2022-07-23T11:24:24;29.70;70.00
32664;DHT22;19847;48.670;9.242;2022-07-23T11:27:48;29.40;69.70
32664;DHT22;19847;48.670;9.242;2022-07-23T11:31:17;29.00;71.10
32664;DHT22;19847;48.670;9.242;2022-07-23T11:34:41;28.80;71.30
32664;DHT22;19847;48.670;9.242;2022-07-23T11:38:07;28.90;71.20
32664;DHT22;19847;48.670;9.242;2022-07-23T11:41:29;29.00;73.20
32664;DHT22;19847;48.670;9.242;2022-07-23T11:45:06;29.20;69.70
32664;DHT22;19847;48.670;9.242;2022-07-23T11:48:30;29.30;69.10
32664;DHT22;19847;48.670;9.242;2022-07-23T11:52:13;29.10;69.20
32664;DHT22;19847;48.670;9.242;2022-07-23T11:55:37;29.10;72.10
32664;DHT22;19847;48.670;9.242;2022-07-23T11:58:59;29.20;68.70
32664;DHT22;19847;48.670;9.242;2022-07-23T12:02:21;29.20;70.60
32664;DHT22;19847;48.670;9.242;2022-07-23T12:05:43;29.20;71.10
32664;DHT22;19847;48.670;9.242;2022-07-23T12:09:07;29.30;69.00
32664;DHT22;19847;48.670;9.242;2022-07-23T12:12:36;29.40;72.60
32664;DHT22;19847;48.670;9.242;2022-07-23T12:15:58;29.50;67.30
32664;DHT22;19847;48.670;9.242;2022-07-23T12:19:21;29.40;70.30
32664;DHT22;19847;48.670;9.242;2022-07-23T12:22:45;29.50;71.70
32664;DHT22;19847;48.670;9.242;2022-07-23T12:26:07;29.90;68.50
32664;DHT22;19847;48.670;9.242;2022-07-23T12:29:35;30.20;67.80
32664;DHT22;19847;48.670;9.242;2022-07-23T12:32:58;30.10;68.80
32664;DHT22;19847;48.670;9.242;2022-07-23T12:36:19;30.10;71.00
32664;DHT22;19847;48.670;9.242;2022-07-23T12:39:42;29.80;68.30
32664;DHT22;19847;48.670;9.242;2022-07-23T12:43:06;29.90;70.90
32664;DHT22;19847;48.670;9.242;2022-07-23T12:46:33;30.00;68.30
32664;DHT22;19847;48.670;9.242;2022-07-23T12:49:55;30.00;70.20
32664;DHT22;19847;48.670;9.242;2022-07-23T12:53:19;30.10;68.80
32664;DHT22;19847;48.670;9.242;2022-07-23T12:56:45;30.10;68.70
32664;DHT22;19847;48.670;9.242;2022-07-23T13:00:10;30.10;69.20
32664;DHT22;19847;48.670;9.242;2022-07-23T13:03:37;30.20;69.50
32664;DHT22;19847;48.670;9.242;2022-07-23T13:07:01;30.30;67.80
32664;DHT22;19847;48.670;9.242;2022-07-23T13:10:26;30.30;68.40
32664;DHT22;19847;48.670;9.242;2022-07-23T13:13:47;30.20;70.20
32664;DHT22;19847;48.670;9.242;2022-07-23T13:17:10;30.10;68.90
32664;DHT22;19847;48.670;9.242;2022-07-23T13:20:33;29.90;69.00
32664;DHT22;19847;48.670;9.242;2022-07-23T13:23:56;29.80;69.00
32664;DHT22;19847;48.670;9.242;2022-07-23T13:27:17;29.70;69.20
32664;DHT22;19847;48.670;9.242;2022-07-23T13:30:41;29.60;72.10
32664;DHT22;19847;48.670;9.242;2022-07-23T13:34:04;29.70;70.50
32664;DHT22;19847;48.670;9.242;2022-07-23T13:37:29;29.70;69.20
32664;DHT22;19847;48.670;9.242;2022-07-23T13:40:52;29.70;68.80
32664;DHT22;19847;48.670;9.242;2022-07-23T13:44:14;29.60;70.60
32664;DHT22;19847;48.670;9.242;2022-07-23T13:47:36;29.60;69.30
32664;DHT22;19847;48.670;9.242;2022-07-23T13:50:58;29.50;70.60
32664;DHT22;19847;48.670;9.242;2022-07-23T13:54:23;29.30;70.50
32664;DHT22;19847;48.670;9.242;2022-07-23T13:57:44;29.30;69.80
32664;DHT22;19847;48.670;9.242;2022-07-23T14:01:07;29.20;70.00
32664;DHT22;19847;48.670;9.242;2022-07-23T14:04:29;29.10;69.00
32664;DHT22;19847;48.670;9.242;2022-07-23T14:07:51;28.90;69.70
32664;DHT22;19847;48.670;9.242;2022-07-23T14:11:14;29.00;69.60
32664;DHT22;19847;48.670;9.242;2022-07-23T14:14:36;29.10;68.90
32664;DHT22;19847;48.670;9.242;2022-07-23T14:17:58;29.10;68.80
32664;DHT22;19847;48.670;9.242;2022-07-23T14:21:20;29.10;69.30
32664;DHT22;19847;48.670;9.242;2022-07-23T14:24:42;29.10;69.50
32664;DHT22;19847;48.670;9.242;2022-07-23T14:28:05;28.90;69.80
32664;DHT22;19847;48.670;9.242;2022-07-23T14:31:29;28.90;69.50
32664;DHT22;19847;48.670;9.242;2022-07-23T14:34:52;29.10;69.80
32664;DHT22;19847;48.670;9.242;2022-07-23T14:38:14;29.10;69.60
32664;DHT22;19847;48.670;9.242;2022-07-23T14:41:35;29.20;68.80
32664;DHT22;19847;48.670;9.242;2022-07-23T14:44:59;29.20;69.60
32664;DHT22;19847;48.670;9.242;2022-07-23T14:48:30;29.30;69.40
32664;DHT22;19847;48.670;9.242;2022-07-23T14:51:52;29.40;70.50
32664;DHT22;19847;48.670;9.242;2022-07-23T14:55:14;29.60;67.60
32664;DHT22;19847;48.670;9.242;2022-07-23T14:58:36;29.60;69.30
32664;DHT22;19847;48.670;9.242;2022-07-23T15:02:00;29.80;67.60
32664;DHT22;19847;48.670;9.242;2022-07-23T15:05:21;29.90;69.00
32664;DHT22;19847;48.670;9.242;2022-07-23T15:08:44;30.10;69.00
32664;DHT22;19847;48.670;9.242;2022-07-23T15:12:08;30.10;64.20
32664;DHT22;19847;48.670;9.242;2022-07-23T15:15:34;29.80;66.20
32664;DHT22;19847;48.670;9.242;2022-07-23T15:18:57;29.80;65.20
32664;DHT22;19847;48.670;9.242;2022-07-23T15:22:20;29.70;65.90
32664;DHT22;19847;48.670;9.242;2022-07-23T15:25:43;29.60;66.80
32664;DHT22;19847;48.670;9.242;2022-07-23T15:29:12;29.60;66.10
32664;DHT22;19847;48.670;9.242;2022-07-23T15:32:34;29.70;65.40
32664;DHT22;19847;48.670;9.242;2022-07-23T15:35:57;29.70;65.40
32664;DHT22;19847;48.670;9.242;2022-07-23T15:39:19;29.60;65.40
32664;DHT22;19847;48.670;9.242;2022-07-23T15:42:41;29.60;66.10
32664;DHT22;19847;48.670;9.242;2022-07-23T15:46:04;29.50;66.60
32664;DHT22;19847;48.670;9.242;2022-07-23T15:49:27;29.50;65.40
32664;DHT22;19847;48.670;9.242;2022-07-23T15:52:51;29.50;67.50
32664;DHT22;19847;48.670;9.242;2022-07-23T15:56:13;29.50;64.10
32664;DHT22;19847;48.670;9.242;2022-07-23T15:59:38;29.50;64.80
32664;DHT22;19847;48.670;9.242;2022-07-23T16:02:59;29.60;65.70
32664;DHT22;19847;48.670;9.242;2022-07-23T16:06:28;29.60;65.10
32664;DHT22;19847;48.670;9.242;2022-07-23T16:09:51;29.50;66.60
32664;DHT22;19847;48.670;9.242;2022-07-23T16:13:14;29.40;65.20
32664;DHT22;19847;48.670;9.242;2022-07-23T16:16:36;29.10;66.50
32664;DHT22;19847;48.670;9.242;2022-07-23T16:19:57;28.90;68.10
32664;DHT22;19847;48.670;9.242;2022-07-23T16:23:20;28.80;66.90
32664;DHT22;19847;48.670;9.242;2022-07-23T16:26:43;28.60;68.30
32664;DHT22;19847;48.670;9.242;2022-07-23T16:30:06;28.70;67.70
32664;DHT22;19847;48.670;9.242;2022-07-23T16:33:28;28.70;67.50
32664;DHT22;19847;48.670;9.242;2022-07-23T16:36:50;28.70;67.30
32664;DHT22;19847;48.670;9.242;2022-07-23T16:40:12;28.70;68.90
32664;DHT22;19847;48.670;9.242;2022-07-23T16:43:37;28.60;67.50
32664;DHT22;19847;48.670;9.242;2022-07-23T16:46:59;28.40;67.70
32664;DHT22;19847;48.670;9.242;2022-07-23T16:50:21;28.40;67.60
32664;DHT22;19847;48.670;9.242;2022-07-23T16:53:43;28.30;69.50
32664;DHT22;19847;48.670;9.242;2022-07-23T16:57:04;28.20;70.00
32664;DHT22;19847;48.670;9.242;2022-07-23T17:00:28;28.30;68.50
32664;DHT22;19847;48.670;9.242;2022-07-23T17:03:50;28.20;68.20
32664;DHT22;19847;48.670;9.242;2022-07-23T17:07:12;28.20;68.20
32664;DHT22;19847;48.670;9.242;2022-07-23T17:10:36;28.30;69.70
32664;DHT22;19847;48.670;9.242;2022-07-23T17:13:58;28.20;69.70
32664;DHT22;19847;48.670;9.242;2022-07-23T17:17:21;28.20;70.60
32664;DHT22;19847;48.670;9.242;2022-07-23T17:20:43;28.20;71.30
32664;DHT22;19847;48.670;9.242;2022-07-23T17:24:05;28.10;70.50
32664;DHT22;19847;48.670;9.242;2022-07-23T17:27:31;28.00;72.70
32664;DHT22;19847;48.670;9.242;2022-07-23T17:30:53;27.90;71.70
32664;DHT22;19847;48.670;9.242;2022-07-23T17:34:16;27.90;72.70
32664;DHT22;19847;48.670;9.242;2022-07-23T17:37:38;27.80;72.50
32664;DHT22;19847;48.670;9.242;2022-07-23T17:41:00;27.80;72.90
32664;DHT22;19847;48.670;9.242;2022-07-23T17:44:22;27.70;73.90
32664;DHT22;19847;48.670;9.242;2022-07-23T17:47:44;27.60;73.90
32664;DHT22;19847;48.670;9.242;2022-07-23T17:51:08;27.40;74.80
32664;DHT22;19847;48.670;9.242;2022-07-23T17:54:30;27.30;74.80
32664;DHT22;19847;48.670;9.242;2022-07-23T17:57:54;27.20;76.40
32664;DHT22;19847;48.670;9.242;2022-07-23T18:01:17;27.00;77.10
32664;DHT22;19847;48.670;9.242;2022-07-23T18:04:39;26.90;78.00
32664;DHT22;19847;48.670;9.242;2022-07-23T18:08:03;26.80;79.00
32664;DHT22;19847;48.670;9.242;2022-07-23T18:11:25;26.70;79.40
32664;DHT22;19847;48.670;9.242;2022-07-23T18:14:48;26.60;79.50
32664;DHT22;19847;48.670;9.242;2022-07-23T18:18:10;26.50;79.70
32664;DHT22;19847;48.670;9.242;2022-07-23T18:21:34;26.40;79.70
32664;DHT22;19847;48.670;9.242;2022-07-23T18:24:57;26.30;80.00
32664;DHT22;19847;48.670;9.242;2022-07-23T18:28:19;26.20;80.30
32664;DHT22;19847;48.670;9.242;2022-07-23T18:31:42;26.10;80.30
32664;DHT22;19847;48.670;9.242;2022-07-23T18:35:05;26.00;80.90
32664;DHT22;19847;48.670;9.242;2022-07-23T18:38:31;25.90;81.30
32664;DHT22;19847;48.670;9.242;2022-07-23T18:42:01;25.90;81.90
32664;DHT22;19847;48.670;9.242;2022-07-23T18:45:28;25.80;82.10
32664;DHT22;19847;48.670;9.242;2022-07-23T18:48:50;25.80;82.50
32664;DHT22;19847;48.670;9.242;2022-07-23T18:52:12;25.70;82.60
32664;DHT22;19847;48.670;9.242;2022-07-23T18:55:34;25.70;82.80
32664;DHT22;19847;48.670;9.242;2022-07-23T18:58:58;25.60;83.40
32664;DHT22;19847;48.670;9.242;2022-07-23T19:02:20;25.50;83.20
32664;DHT22;19847;48.670;9.242;2022-07-23T19:05:42;25.50;83.80
32664;DHT22;19847;48.670;9.242;2022-07-23T19:09:05;25.40;84.60
32664;DHT22;19847;48.670;9.242;2022-07-23T19:12:29;25.30;84.20
32664;DHT22;19847;48.670;9.242;2022-07-23T19:15:53;25.30;84.50
32664;DHT22;19847;48.670;9.242;2022-07-23T19:19:15;25.20;84.90
32664;DHT22;19847;48.670;9.242;2022-07-23T19:22:37;25.10;85.20
32664;DHT22;19847;48.670;9.242;2022-07-23T19:25:59;25.00;85.90
32664;DHT22;19847;48.670;9.242;2022-07-23T19:29:21;24.90;87.40
32664;DHT22;19847;48.670;9.242;2022-07-23T19:32:44;24.80;87.20
32664;DHT22;19847;48.670;9.242;2022-07-23T19:36:07;24.70;87.30
32664;DHT22;19847;48.670;9.242;2022-07-23T19:39:29;24.70;89.80
32664;DHT22;19847;48.670;9.242;2022-07-23T19:42:51;24.50;90.10
32664;DHT22;19847;48.670;9.242;2022-07-23T19:46:13;24.40;90.70
32664;DHT22;19847;48.670;9.242;2022-07-23T19:49:36;24.40;90.80
32664;DHT22;19847;48.670;9.242;2022-07-23T19:52:58;24.30;90.80
32664;DHT22;19847;48.670;9.242;2022-07-23T19:56:20;24.20;91.10
32664;DHT22;19847;48.670;9.242;2022-07-23T19:59:42;24.30;91.20
32664;DHT22;19847;48.670;9.242;2022-07-23T20:03:04;24.20;91.50
32664;DHT22;19847;48.670;9.242;2022-07-23T20:06:28;24.20;91.50
32664;DHT22;19847;48.670;9.242;2022-07-23T20:09:50;24.20;91.60
32664;DHT22;19847;48.670;9.242;2022-07-23T20:13:12;24.20;91.60
32664;DHT22;19847;48.670;9.242;2022-07-23T20:16:34;24.20;91.80
32664;DHT22;19847;48.670;9.242;2022-07-23T20:19:56;24.20;92.00
32664;DHT22;19847;48.670;9.242;2022-07-23T20:23:19;24.20;92.50
32664;DHT22;19847;48.670;9.242;2022-07-23T20:26:41;24.10;92.50
32664;DHT22;19847;48.670;9.242;2022-07-23T20:30:04;24.10;92.40
32664;DHT22;19847;48.670;9.242;2022-07-23T20:33:26;24.10;92.50
32664;DHT22;19847;48.670;9.242;2022-07-23T20:36:53;24.20;92.80
32664;DHT22;19847;48.670;9.242;2022-07-23T20:40:16;24.20;92.70
32664;DHT22;19847;48.670;9.242;2022-07-23T20:43:38;24.20;92.70
32664;DHT22;19847;48.670;9.242;2022-07-23T20:47:00;24.20;92.70
32664;DHT22;19847;48.670;9.242;2022-07-23T20:50:22;24.20;92.60
32664;DHT22;19847;48.670;9.242;2022-07-23T20:53:44;24.20;92.90
32664;DHT22;19847;48.670;9.242;2022-07-23T20:57:08;24.10;93.10
32664;DHT22;19847;48.670;9.242;2022-07-23T21:00:30;24.20;93.10
32664;DHT22;19847;48.670;9.242;2022-07-23T21:03:52;24.10;92.90
32664;DHT22;19847;48.670;9.242;2022-07-23T21:07:14;24.10;93.10
32664;DHT22;19847;48.670;9.242;2022-07-23T21:10:40;24.10;93.10
32664;DHT22;19847;48.670;9.242;2022-07-23T21:14:03;24.00;93.50
32664;DHT22;19847;48.670;9.242;2022-07-23T21:17:25;23.90;93.70
32664;DHT22;19847;48.670;9.242;2022-07-23T21:20:47;23.90;93.90
32664;DHT22;19847;48.670;9.242;2022-07-23T21:24:09;23.90;94.30
32664;DHT22;19847;48.670;9.242;2022-07-23T21:27:31;23.80;94.00